Time,TemperatureF,DewpointF,PressureIn,WindDirection,WindDirectionDegrees,WindSpeedMPH,WindSpeedGustMPH,Humidity,HourlyPrecipIn,Conditions,Clouds,dailyrainin,SoftwareType,DateUTC
2013-09-11 00:02:00,76.8,64.1,30.10,North,0,0.0,0.0,65,0.00,,,0.00,WUHU21623XXSP,2013-09-11 05:02:00,
2013-09-11 00:07:00,76.8,64.6,30.10,North,0,0.0,0.0,66,0.00,,,0.00,WUHU21623XXSP,2013-09-11 05:07:00,
2013-09-11 00:12:00,76.8,64.6,30.10,North,0,0.0,0.0,66,0.00,,,0.00,WUHU21623XXSP,2013-09-11 05:12:00,
2013-09-11 00:17:00,76.5,64.4,30.10,North,0,0.0,0.0,66,0.00,,,0.00,WUHU21623XXSP,2013-09-11 05:17:00,
2013-09-11 00:22:00,76.3,64.1,30.10,North,0,0.0,0.0,66,0.00,,,0.00,WUHU21623XXSP,2013-09-11 05:22:00,
2013-09-11 00:27:00,76.3,64.1,30.10,North,0,0.0,0.0,66,0.00,,,0.00,WUHU21623XXSP,2013-09-11 05:27:00,
2013-09-11 00:32:00,76.1,64.3,30.10,North,0,0.0,0.0,67,0.00,,,0.00,WUHU21623XXSP,2013-09-11 05:32:00,
2013-09-11 00:37:00,75.9,64.1,30.10,North,0,0.0,0.0,67,0.00,,,0.00,WUHU21623XXSP,2013-09-11 05:37:00,
2013-09-11 00:42:00,75.9,64.1,30.10,North,0,0.0,0.0,67,0.00,,,0.00,WUHU21623XXSP,2013-09-11 05:42:00,
2013-09-11 00:47:00,75.7,64.4,30.10,North,0,0.0,0.0,68,0.00,,,0.00,WUHU21623XXSP,2013-09-11 05:47:00,
2013-09-11 00:52:00,75.6,64.2,30.10,North,0,0.0,0.0,68,0.00,,,0.00,WUHU21623XXSP,2013-09-11 05:52:00,
2013-09-11 00:58:00,75.4,64.1,30.10,North,0,0.0,0.0,68,0.00,,,0.00,WUHU21623XXSP,2013-09-11 05:58:00,
2013-09-11 01:03:00,75.4,64.1,30.10,North,0,0.0,0.0,68,0.00,,,0.00,WUHU21623XXSP,2013-09-11 06:03:00,
2013-09-11 01:08:00,74.8,64.0,30.09,North,0,0.0,0.0,69,0.00,,,0.00,WUHU21623XXSP,2013-09-11 06:08:00,
2013-09-11 01:13:00,74.7,64.4,30.10,North,0,0.0,0.0,70,0.00,,,0.00,WUHU21623XXSP,2013-09-11 06:13:00,
2013-09-11 01:18:00,74.5,64.1,30.10,North,0,0.0,0.0,70,0.00,,,0.00,WUHU21623XXSP,2013-09-11 06:18:00,
2013-09-11 01:23:00,74.5,64.1,30.10,North,0,0.0,0.0,70,0.00,,,0.00,WUHU21623XXSP,2013-09-11 06:23:00,
2013-09-11 01:28:00,74.3,64.5,30.09,North,0,0.0,0.0,71,0.00,,,0.00,WUHU21623XXSP,2013-09-11 06:28:00,
2013-09-11 01:33:00,74.1,64.2,30.09,North,0,0.0,0.0,71,0.00,,,0.00,WUHU21623XXSP,2013-09-11 06:33:00,
2013-09-11 01:38:00,74.1,64.2,30.09,North,0,0.0,0.0,71,0.00,,,0.00,WUHU21623XXSP,2013-09-11 06:38:00,
2013-09-11 01:43:00,73.9,64.2,30.10,North,0,0.0,0.0,71,0.00,,,0.00,WUHU21623XXSP,2013-09-11 06:43:00,
2013-09-11 01:48:00,73.8,64.0,30.09,North,0,0.0,0.0,71,0.00,,,0.00,WUHU21623XXSP,2013-09-11 06:48:00,
2013-09-11 01:53:00,73.8,64.2,30.10,North,0,0.0,0.0,72,0.00,,,0.00,WUHU21623XXSP,2013-09-11 06:53:00,
2013-09-11 01:58:00,73.6,64.1,30.10,North,0,0.0,0.0,72,0.00,,,0.00,WUHU21623XXSP,2013-09-11 06:58:00,
2013-09-11 02:03:00,73.4,64.1,30.10,North,0,0.0,0.0,73,0.00,,,0.00,WUHU21623XXSP,2013-09-11 07:03:00,
2013-09-11 02:08:00,73.2,64.1,30.10,North,0,0.0,0.0,73,0.00,,,0.00,WUHU21623XXSP,2013-09-11 07:08:00,
2013-09-11 02:13:00,73.0,63.9,30.10,North,0,0.0,0.0,73,0.00,,,0.00,WUHU21623XXSP,2013-09-11 07:13:00,
2013-09-11 02:18:00,73.0,63.9,30.10,North,0,0.0,0.0,73,0.00,,,0.00,WUHU21623XXSP,2013-09-11 07:18:00,
2013-09-11 02:23:00,72.7,63.6,30.10,North,0,0.0,0.0,73,0.00,,,0.00,WUHU21623XXSP,2013-09-11 07:23:00,
2013-09-11 02:28:00,72.5,63.4,30.10,North,0,0.0,0.0,73,0.00,,,0.00,WUHU21623XXSP,2013-09-11 07:28:00,
2013-09-11 02:33:00,72.5,63.4,30.10,North,0,0.0,0.0,73,0.00,,,0.00,WUHU21623XXSP,2013-09-11 07:33:00,
2013-09-11 02:38:00,72.3,63.6,30.10,North,0,0.0,0.0,74,0.00,,,0.00,WUHU21623XXSP,2013-09-11 07:38:00,
2013-09-11 02:43:00,72.3,63.6,30.10,North,0,0.0,0.0,74,0.00,,,0.00,WUHU21623XXSP,2013-09-11 07:43:00,
2013-09-11 02:48:00,72.3,64.0,30.10,North,0,0.0,0.0,75,0.00,,,0.00,WUHU21623XXSP,2013-09-11 07:48:00,
2013-09-11 12:38:00,92.8,66.9,30.13,North,0,0.0,0.0,43,0.00,,,0.00,WUHU21623XXSP,2013-09-11 17:38:00,
2013-09-11 12:43:00,93.0,67.1,30.13,North,0,0.0,0.0,42,0.00,,,0.00,WUHU21623XXSP,2013-09-11 17:43:00,
2013-09-11 12:48:00,92.8,66.4,30.13,North,0,0.0,0.0,42,0.00,,,0.00,WUHU21623XXSP,2013-09-11 17:48:00,
2013-09-11 12:53:00,92.8,66.3,30.13,North,0,0.0,0.0,42,0.00,,,0.00,WUHU21623XXSP,2013-09-11 17:53:00,
2013-09-11 12:58:00,92.8,66.3,30.13,North,0,0.0,0.0,42,0.00,,,0.00,WUHU21623XXSP,2013-09-11 17:58:00,
2013-09-11 13:03:00,92.8,65.6,30.13,North,0,0.0,0.0,41,0.00,,,0.00,WUHU21623XXSP,2013-09-11 18:03:00,
2013-09-11 13:08:00,93.0,66.4,30.12,North,0,0.0,0.0,42,0.00,,,0.00,WUHU21623XXSP,2013-09-11 18:08:00,
2013-09-11 13:13:00,93.0,66.4,30.13,North,0,0.0,0.0,42,0.00,,,0.00,WUHU21623XXSP,2013-09-11 18:13:00,
2013-09-11 13:18:00,93.4,66.4,30.12,North,0,0.0,0.0,42,0.00,,,0.00,WUHU21623XXSP,2013-09-11 18:18:00,
2013-09-11 13:23:00,93.7,67.1,30.12,North,0,0.0,0.0,42,0.00,,,0.00,WUHU21623XXSP,2013-09-11 18:23:00,
2013-09-11 13:28:00,93.9,66.4,30.12,North,0,0.0,0.0,41,0.00,,,0.00,WUHU21623XXSP,2013-09-11 18:28:00,
2013-09-11 13:33:00,93.9,67.2,30.12,North,0,0.0,0.0,42,0.00,,,0.00,WUHU21623XXSP,2013-09-11 18:33:00,
2013-09-11 13:38:00,94.5,66.3,30.12,North,0,0.0,0.0,40,0.00,,,0.00,WUHU21623XXSP,2013-09-11 18:38:00,
2013-09-11 13:43:00,94.6,66.4,30.11,North,0,0.0,0.0,40,0.00,,,0.00,WUHU21623XXSP,2013-09-11 18:43:00,
2013-09-11 13:48:00,94.6,66.6,30.12,North,0,0.0,0.0,40,0.00,,,0.00,WUHU21623XXSP,2013-09-11 18:48:00,
2013-09-11 13:53:00,95.0,66.1,30.11,North,0,0.0,0.0,39,0.00,,,0.00,WUHU21623XXSP,2013-09-11 18:53:00,
2013-09-11 13:58:00,95.0,66.1,30.11,North,0,0.0,0.0,39,0.00,,,0.00,WUHU21623XXSP,2013-09-11 18:58:00,
2013-09-11 23:17:00,77.5,67.0,30.07,North,0,0.0,0.0,70,0.00,,,0.00,WUHU21623XXSP,2013-09-12 04:17:00,
2013-09-11 23:19:00,77.4,66.9,30.07,North,0,0.0,0.0,70,0.00,,,0.00,WUHU21623XXSP,2013-09-12 04:19:00,
2013-09-11 23:24:00,77.4,66.9,30.08,North,0,0.0,0.0,70,0.00,,,0.00,WUHU21623XXSP,2013-09-12 04:24:00,
2013-09-11 23:29:00,77.4,66.9,30.07,North,0,0.0,0.0,70,0.00,,,0.00,WUHU21623XXSP,2013-09-12 04:29:00,
2013-09-11 23:36:00,77.4,67.3,30.07,North,0,0.0,0.0,71,0.00,,,0.00,WUHU21623XXSP,2013-09-12 04:36:00,
2013-09-11 23:39:00,77.4,67.3,30.07,North,0,0.0,0.0,71,0.00,,,0.00,WUHU21623XXSP,2013-09-12 04:39:00,
2013-09-11 23:44:00,77.2,67.5,30.07,North,0,0.0,0.0,72,0.00,,,0.00,WUHU21623XXSP,2013-09-12 04:44:00,
2013-09-11 23:49:00,77.2,67.5,30.07,North,0,0.0,0.0,72,0.00,,,0.00,WUHU21623XXSP,2013-09-12 04:49:00,
2013-09-11 23:54:00,77.2,67.5,30.06,North,0,0.0,0.0,72,0.00,,,0.00,WUHU21623XXSP,2013-09-12 04:54:00,
2013-09-11 23:59:00,77.2,67.5,30.06,North,0,0.0,0.0,72,0.00,,,0.00,WUHU21623XXSP,2013-09-12 04:59:00,